Time;durP1;ratioP1;P1;durP2;ratioP2;P2;SDS_P1;SDS_P2;PMS_P1;PMS_P2;Temp;Humidity;BMP_temperature;BMP_pressure;BME280_temperature;BME280_humidity;BME280_pressure;Samples;Min_cycle;Max_cycle;Signal;HPM_P1;HPM_P2
2020/12/10 00:01:34;;;;;;;36.08;21.10;;;0.00;99.90;;;;;;4992892;28;20414;-63
2020/12/10 00:04:00;;;;;;;33.08;20.08;;;0.10;99.90;;;;;;4992638;28;20426;-64
2020/12/10 00:06:26;;;;;;;36.15;20.65;;;0.20;99.90;;;;;;4992467;28;20493;-64
2020/12/10 00:08:52;;;;;;;35.75;20.58;;;0.20;99.90;;;;;;4992273;28;20449;-63
2020/12/10 00:11:19;;;;;;;31.83;18.95;;;0.20;99.90;;;;;;4992473;28;20411;-63
2020/12/10 00:13:46;;;;;;;32.33;18.88;;;0.20;97.00;;;;;;4992663;28;20414;-63
2020/12/10 00:16:12;;;;;;;35.55;20.65;;;0.20;93.20;;;;;;4992339;28;20468;-63
2020/12/10 00:18:38;;;;;;;31.17;20.20;;;0.20;90.80;;;;;;4992609;28;20476;-64
2020/12/10 00:21:05;;;;;;;37.97;20.20;;;0.20;98.50;;;;;;4992100;28;20422;-63
2020/12/10 00:23:31;;;;;;;31.20;19.58;;;0.20;96.20;;;;;;4992471;28;20419;-64
2020/12/10 00:25:57;;;;;;;35.92;20.13;;;0.20;99.90;;;;;;4991930;28;20477;-62
2020/12/10 00:28:23;;;;;;;33.20;19.33;;;0.20;99.80;;;;;;4992360;28;20414;-63
2020/12/10 00:30:50;;;;;;;29.83;20.58;;;0.20;96.90;;;;;;4992396;28;20480;-63
2020/12/10 00:33:16;;;;;;;33.40;21.20;;;0.20;98.10;;;;;;4992182;28;20465;-63
2020/12/10 00:35:42;;;;;;;33.88;20.70;;;0.20;92.70;;;;;;4992255;28;20472;-64
2020/12/10 00:38:08;;;;;;;31.55;19.70;;;0.20;99.90;;;;;;4991976;28;20426;-64
2020/12/10 00:40:35;;;;;;;32.70;19.42;;;0.20;99.20;;;;;;4991969;28;20417;-63
2020/12/10 00:43:01;;;;;;;36.20;20.92;;;0.30;99.10;;;;;;4992337;28;20476;-63
2020/12/10 00:45:27;;;;;;;30.73;19.25;;;0.40;74.10;;;;;;4992062;28;20415;-63
2020/12/10 00:47:54;;;;;;;32.15;20.27;;;0.40;45.60;;;;;;4992236;28;20430;-63
2020/12/10 00:50:20;;;;;;;29.00;19.20;;;0.40;22.80;;;;;;4991752;28;20410;-63
2020/12/10 00:52:46;;;;;;;33.30;19.38;;;0.30;5.90;;;;;;4991998;28;20465;-63
2020/12/10 00:55:12;;;;;;;31.67;19.00;;;0.30;40.10;;;;;;4991555;28;20484;-64
2020/12/10 00:57:38;;;;;;;32.20;19.30;;;0.30;41.10;;;;;;4992129;28;20415;-61
2020/12/10 01:00:06;;;;;;;33.10;20.83;;;0.30;34.50;;;;;;4992006;28;20414;-63
2020/12/10 01:02:32;;;;;;;37.85;21.65;;;0.30;10.00;;;;;;4991831;28;20418;-63
2020/12/10 01:04:59;;;;;;;33.55;19.98;;;0.30;14.20;;;;;;4991764;28;20822;-64
2020/12/10 01:07:25;;;;;;;30.45;20.08;;;0.30;23.70;;;;;;4991550;28;20928;-64
2020/12/10 01:09:52;;;;;;;30.17;19.75;;;0.30;8.60;;;;;;4991512;28;20449;-63
2020/12/10 01:12:18;;;;;;;29.20;17.80;;;0.40;23.10;;;;;;4991848;28;20771;-63
2020/12/10 01:14:44;;;;;;;30.15;18.90;;;0.40;11.10;;;;;;4991600;28;20414;-63
2020/12/10 01:17:10;;;;;;;31.55;19.10;;;0.40;1.00;;;;;;4991718;28;20401;-62
2020/12/10 01:19:36;;;;;;;29.87;17.87;;;0.40;1.00;;;;;;4991502;28;20480;-64
2020/12/10 01:22:04;;;;;;;29.42;19.63;;;0.40;1.00;;;;;;4991575;28;20410;-63
2020/12/10 01:24:30;;;;;;;29.05;19.20;;;0.40;1.00;;;;;;4991314;28;20798;-63
2020/12/10 01:26:56;;;;;;;28.98;19.05;;;0.30;1.00;;;;;;4991930;28;20866;-62
2020/12/10 01:29:22;;;;;;;33.88;20.77;;;0.10;1.00;;;;;;4991634;28;20456;-63
2020/12/10 01:31:49;;;;;;;33.22;20.00;;;0.00;27.40;;;;;;4991844;28;20472;-63
2020/12/10 01:34:15;;;;;;;32.40;19.85;;;-0.10;87.40;;;;;;4995554;28;20410;-63
2020/12/10 01:36:41;;;;;;;33.17;20.58;;;0.00;99.90;;;;;;4995052;28;20461;-64
2020/12/10 01:39:08;;;;;;;32.03;20.27;;;0.10;92.80;;;;;;4995799;28;20419;-63
2020/12/10 01:41:34;;;;;;;32.47;19.65;;;0.20;99.90;;;;;;4995649;28;20415;-63
2020/12/10 01:44:02;;;;;;;30.67;18.70;;;0.20;59.80;;;;;;4995512;28;20418;-63
2020/12/10 01:46:29;;;;;;;32.55;21.02;;;0.10;52.30;;;;;;4995102;28;20431;-63
2020/12/10 01:48:55;;;;;;;39.00;21.05;;;0.10;99.90;;;;;;4995241;28;21079;-62
2020/12/10 01:51:21;;;;;;;33.60;19.17;;;0.10;99.90;;;;;;4995152;28;20419;-63
2020/12/10 01:53:47;;;;;;;31.30;20.60;;;0.10;99.90;;;;;;4995359;28;20418;-64
2020/12/10 01:56:16;;;;;;;34.40;22.15;;;0.00;99.90;;;;;;4995184;28;20472;-64
2020/12/10 01:58:43;;;;;;;32.90;19.98;;;0.10;99.90;;;;;;4995069;28;20419;-63
2020/12/10 02:01:09;;;;;;;35.28;19.85;;;0.10;99.90;;;;;;4994823;28;20414;-63
2020/12/10 02:03:35;;;;;;;31.80;19.80;;;0.10;99.90;;;;;;4994926;28;20410;-63
2020/12/10 02:06:01;;;;;;;34.50;20.42;;;0.10;99.90;;;;;;4994414;28;20414;-63
2020/12/10 02:08:27;;;;;;;34.25;21.05;;;0.00;99.90;;;;;;4994963;28;20747;-63
2020/12/10 02:10:53;;;;;;;32.80;20.50;;;0.10;99.90;;;;;;4994964;28;20418;-63
2020/12/10 02:13:20;;;;;;;32.63;20.45;;;0.10;99.90;;;;;;4994783;28;20410;-63
2020/12/10 02:15:47;;;;;;;33.38;20.50;;;0.20;99.90;;;;;;4994688;28;20465;-63
2020/12/10 02:18:13;;;;;;;34.55;19.45;;;0.10;99.90;;;;;;4994529;28;20418;-61
2020/12/10 02:20:39;;;;;;;32.25;19.55;;;0.20;99.90;;;;;;4994556;28;20468;-63
2020/12/10 02:23:07;;;;;;;34.72;20.90;;;0.10;99.90;;;;;;4994530;28;20472;-61
2020/12/10 02:25:33;;;;;;;37.13;21.55;;;0.10;95.40;;;;;;4994596;28;20406;-63
2020/12/10 02:28:00;;;;;;;32.75;21.55;;;0.10;99.90;;;;;;4994324;28;20992;-63
2020/12/10 02:30:27;;;;;;;36.15;23.00;;;0.10;99.90;;;;;;4994242;28;20790;-64
2020/12/10 02:32:58;;;;;;;32.45;19.50;;;0.10;99.90;;;;;;4994370;28;20418;-64
2020/12/10 02:35:26;;;;;;;33.97;21.08;;;0.20;99.90;;;;;;4994222;28;20450;-64
2020/12/10 02:37:53;;;;;;;35.03;22.65;;;0.20;94.70;;;;;;4994050;28;20908;-64
2020/12/10 02:40:20;;;;;;;37.22;21.85;;;0.30;85.20;;;;;;4994250;28;20422;-64
2020/12/10 02:42:47;;;;;;;35.20;21.73;;;0.30;66.00;;;;;;4994173;28;20508;-64
2020/12/10 02:45:13;;;;;;;37.75;21.45;;;0.30;19.90;;;;;;4994152;28;20414;-63
2020/12/10 02:47:39;;;;;;;33.00;20.40;;;0.20;53.80;;;;;;4993793;28;20434;-63
2020/12/10 02:50:05;;;;;;;30.70;21.08;;;0.20;55.50;;;;;;4994582;28;20418;-63
2020/12/10 02:52:31;;;;;;;36.85;22.02;;;0.30;51.30;;;;;;4994088;28;20410;-64
2020/12/10 02:54:57;;;;;;;33.63;20.45;;;0.40;34.50;;;;;;4993975;28;20477;-64
2020/12/10 02:57:24;;;;;;;35.22;21.20;;;0.40;13.40;;;;;;4994102;28;20477;-63
2020/12/10 02:59:51;;;;;;;39.28;22.13;;;0.40;1.00;;;;;;4993841;28;20406;-63
2020/12/10 03:02:17;;;;;;;38.85;23.80;;;0.30;1.00;;;;;;4993847;28;20449;-64
2020/12/10 03:04:43;;;;;;;35.90;21.67;;;0.30;5.90;;;;;;4993751;28;20875;-63
2020/12/10 03:07:09;;;;;;;34.42;21.33;;;0.30;13.10;;;;;;4993530;28;20461;-63
2020/12/10 03:09:35;;;;;;;39.72;24.13;;;0.30;1.00;;;;;;4993757;28;20461;-64
2020/12/10 03:12:01;;;;;;;38.35;22.17;;;0.20;2.60;;;;;;4993680;28;20421;-64
2020/12/10 03:14:28;;;;;;;36.20;22.15;;;0.10;36.30;;;;;;4993768;28;20480;-63
2020/12/10 03:16:54;;;;;;;37.30;22.80;;;0.20;77.00;;;;;;4993214;28;20465;-64
2020/12/10 03:19:20;;;;;;;37.72;22.08;;;0.20;80.90;;;;;;4993854;28;20411;-63
2020/12/10 03:21:47;;;;;;;38.55;23.17;;;0.20;62.90;;;;;;4993538;28;20457;-63
2020/12/10 03:24:13;;;;;;;40.23;22.70;;;0.10;54.60;;;;;;4993634;28;20422;-63
2020/12/10 03:26:39;;;;;;;36.47;23.23;;;0.10;83.70;;;;;;4993179;28;20481;-64
2020/12/10 03:29:07;;;;;;;39.65;23.00;;;0.10;94.40;;;;;;4993193;28;20779;-64
2020/12/10 03:31:34;;;;;;;40.00;23.48;;;0.10;99.90;;;;;;4993235;28;20429;-63
2020/12/10 03:34:01;;;;;;;37.53;22.88;;;0.10;99.20;;;;;;4993296;28;20410;-63
2020/12/10 03:36:27;;;;;;;38.23;20.93;;;0.10;90.10;;;;;;4993196;28;20499;-63
2020/12/10 03:38:53;;;;;;;38.05;22.98;;;0.10;96.90;;;;;;4993225;28;20468;-63
2020/12/10 03:41:19;;;;;;;39.63;22.00;;;0.20;67.40;;;;;;4993205;28;20760;-64
2020/12/10 03:43:45;;;;;;;39.17;22.38;;;0.10;27.70;;;;;;4993248;28;20448;-64
2020/12/10 03:46:11;;;;;;;40.97;22.70;;;0.00;59.20;;;;;;4992989;28;20414;-64
2020/12/10 03:48:38;;;;;;;41.65;22.95;;;0.00;83.50;;;;;;4993085;28;20841;-63
2020/12/10 03:51:04;;;;;;;34.70;21.17;;;0.00;62.60;;;;;;4992878;28;20414;-64
2020/12/10 03:53:30;;;;;;;41.03;23.52;;;0.00;50.50;;;;;;4993091;28;20418;-64
2020/12/10 03:55:56;;;;;;;35.70;21.02;;;0.00;48.90;;;;;;4992208;28;20473;-64
2020/12/10 03:58:22;;;;;;;40.20;23.13;;;-0.10;57.50;;;;;;4992436;28;20423;-64
2020/12/10 04:00:48;;;;;;;33.15;22.45;;;0.00;65.20;;;;;;4992918;28;20477;-63
2020/12/10 04:03:15;;;;;;;42.33;23.60;;;0.00;56.00;;;;;;4992556;28;20944;-64
2020/12/10 04:05:41;;;;;;;37.42;22.25;;;0.10;42.50;;;;;;4992835;28;20416;-64
2020/12/10 04:08:08;;;;;;;36.65;20.83;;;0.10;25.60;;;;;;4992707;28;20833;-64
2020/12/10 04:10:34;;;;;;;39.88;23.10;;;0.10;1.00;;;;;;4992471;28;20415;-64
2020/12/10 04:13:00;;;;;;;39.97;23.50;;;0.00;1.00;;;;;;4992461;28;20419;-63
2020/12/10 04:15:26;;;;;;;41.05;24.08;;;-0.20;15.20;;;;;;4992448;28;20440;-63
2020/12/10 04:17:52;;;;;;;35.73;21.70;;;-0.10;49.20;;;;;;4992682;28;20410;-64
2020/12/10 04:20:18;;;;;;;40.22;22.35;;;-0.10;14.80;;;;;;4992315;28;20418;-64
2020/12/10 04:22:45;;;;;;;38.60;23.60;;;-0.20;29.60;;;;;;4992575;28;20492;-64
2020/12/10 04:25:11;;;;;;;42.30;24.35;;;-0.20;15.60;;;;;;4992103;28;20476;-64
2020/12/10 04:27:37;;;;;;;39.60;22.55;;;-0.20;24.70;;;;;;4992073;28;20430;-64
2020/12/10 04:30:03;;;;;;;39.42;22.63;;;-0.20;18.20;;;;;;4992458;28;20759;-64
2020/12/10 04:32:29;;;;;;;37.88;22.17;;;-0.20;15.80;;;;;;4992176;28;20414;-64
2020/12/10 04:34:56;;;;;;;41.67;24.35;;;-0.20;17.30;;;;;;4992157;28;20415;-63
2020/12/10 04:37:22;;;;;;;36.85;22.55;;;-0.10;11.40;;;;;;4991950;28;20442;-64
2020/12/10 04:39:49;;;;;;;40.63;22.75;;;-0.10;1.00;;;;;;4992038;28;20410;-59
2020/12/10 04:42:17;;;;;;;43.75;24.30;;;-0.20;1.00;;;;;;4992218;28;20410;-62
2020/12/10 04:44:45;;;;;;;40.58;23.98;;;-0.30;1.00;;;;;;4992080;28;20897;-64
2020/12/10 04:47:12;;;;;;;40.30;23.40;;;-0.40;27.00;;;;;;4991832;28;20434;-64
2020/12/10 04:49:39;;;;;;;35.60;21.73;;;-0.30;49.80;;;;;;4991829;28;20818;-64
2020/12/10 04:52:06;;;;;;;38.40;22.33;;;-0.30;25.40;;;;;;4991910;28;20458;-64
2020/12/10 04:54:33;;;;;;;39.95;21.58;;;-0.30;15.50;;;;;;4991813;28;20953;-64
2020/12/10 04:57:01;;;;;;;42.47;23.75;;;-0.30;23.30;;;;;;4991439;28;20775;-64
2020/12/10 04:59:27;;;;;;;42.33;24.52;;;-0.40;17.80;;;;;;4991918;28;20414;-63
2020/12/10 05:01:55;;;;;;;43.72;23.38;;;-0.50;13.30;;;;;;4991654;28;20473;-64
2020/12/10 05:04:22;;;;;;;40.17;22.25;;;-0.70;45.80;;;;;;4991723;28;20419;-64
2020/12/10 05:06:50;;;;;;;44.10;24.55;;;-0.70;99.90;;;;;;4990519;28;20434;-64
2020/12/10 05:09:17;;;;;;;40.75;22.27;;;-0.70;99.90;;;;;;4991484;28;20497;-63
2020/12/10 05:11:43;;;;;;;45.50;25.20;;;-0.70;99.90;;;;;;4991938;28;20422;-64
2020/12/10 05:14:10;;;;;;;40.53;24.40;;;-0.80;99.90;;;;;;4989269;28;20419;-64
2020/12/10 05:16:36;;;;;;;41.42;24.38;;;-0.80;99.90;;;;;;4991566;28;20469;-64
2020/12/10 05:19:18;;;;;;;38.55;22.77;;;-0.80;99.90;;;;;;4993827;28;20420;-63
2020/12/10 05:22:01;;;;;;;38.97;21.33;;;-0.70;99.90;;;;;;5011047;28;20412;-64
2020/12/10 05:24:28;;;;;;;34.80;22.25;;;-0.60;99.90;;;;;;5011215;28;20444;-63
2020/12/10 05:27:15;;;;;;;40.10;22.48;;;-0.50;99.90;;;;;;5010789;28;20429;-64
2020/12/10 05:29:43;;;;;;;35.45;22.20;;;-0.50;99.90;;;;;;5011154;28;20882;-65
2020/12/10 05:32:10;;;;;;;39.30;22.47;;;-0.50;99.90;;;;;;5010600;28;20471;-65
2020/12/10 05:34:36;;;;;;;35.38;21.52;;;-0.60;99.90;;;;;;5011144;28;20828;-64
2020/12/10 05:37:02;;;;;;;38.67;23.08;;;-0.60;99.90;;;;;;5010515;28;20413;-64
2020/12/10 05:39:28;;;;;;;39.30;23.00;;;-0.60;99.90;;;;;;5011140;28;20412;-64
2020/12/10 05:41:54;;;;;;;39.45;23.27;;;-0.60;99.90;;;;;;5010946;28;20490;-64
2020/12/10 05:44:22;;;;;;;38.35;22.80;;;-0.80;99.90;;;;;;5010632;28;20427;-65
2020/12/10 05:46:51;;;;;;;34.08;21.02;;;-0.70;99.90;;;;;;5010347;28;20767;-64
2020/12/10 05:49:18;;;;;;;33.03;20.98;;;-0.70;99.90;;;;;;5010733;28;20416;-65
2020/12/10 05:51:46;;;;;;;39.15;22.52;;;-0.80;99.90;;;;;;5010887;28;20482;-63
2020/12/10 05:54:13;;;;;;;46.35;24.58;;;-0.90;99.90;;;;;;5011067;28;20916;-64
2020/12/10 05:56:53;;;;;;;38.25;23.20;;;-1.00;99.90;;;;;;5010508;28;20966;-64
2020/12/10 05:59:19;;;;;;;39.80;23.58;;;-0.90;99.90;;;;;;5010675;28;20420;-64
2020/12/10 06:01:47;;;;;;;40.75;24.67;;;-1.00;99.90;;;;;;5010769;28;20483;-63
2020/12/10 06:04:14;;;;;;;41.22;24.35;;;-0.90;99.90;;;;;;5010815;28;20408;-64
2020/12/10 06:06:41;;;;;;;40.38;24.13;;;-1.00;99.90;;;;;;5010283;28;20413;-64
2020/12/10 06:09:08;;;;;;;38.47;22.45;;;-1.00;99.90;;;;;;5010805;28;20448;-63
2020/12/10 06:11:35;;;;;;;41.70;23.98;;;-1.00;99.90;;;;;;5010673;28;20420;-64
2020/12/10 06:14:03;;;;;;;38.20;22.90;;;-1.10;99.90;;;;;;5010493;28;20561;-63
2020/12/10 06:16:29;;;;;;;42.20;24.50;;;-1.10;99.90;;;;;;5010921;28;20424;-63
2020/12/10 06:19:03;;;;;;;43.10;24.87;;;-1.10;99.90;;;;;;5012484;28;20409;-65
2020/12/10 06:21:48;;;;;;;42.55;24.88;;;-1.20;99.90;;;;;;5014121;28;20495;-64
2020/12/10 06:24:33;;;;;;;38.95;24.05;;;-1.10;99.90;;;;;;5013743;28;20466;-63
2020/12/10 06:27:00;;;;;;;44.08;25.35;;;-1.10;99.90;;;;;;5013132;28;20432;-66
2020/12/10 06:29:28;;;;;;;43.20;25.48;;;-1.20;99.90;;;;;;5013970;28;20889;-61
2020/12/10 06:32:05;;;;;;;48.75;26.75;;;-1.20;99.90;;;;;;5013751;28;20413;-61
2020/12/10 06:34:36;;;;;;;48.35;26.70;;;-1.20;99.90;;;;;;5018491;28;20947;-63
2020/12/10 06:37:17;;;;;;;47.95;26.67;;;-1.20;99.90;;;;;;5016310;28;20413;-62
2020/12/10 06:39:43;;;;;;;47.95;27.70;;;-1.20;99.90;;;;;;5013894;28;20416;-58
2020/12/10 06:42:12;;;;;;;50.50;30.13;;;-1.20;99.90;;;;;;5008572;28;20967;-60
2020/12/10 06:44:39;;;;;;;46.60;27.05;;;-1.20;99.90;;;;;;4993919;28;20839;-63
2020/12/10 06:47:06;;;;;;;44.10;26.83;;;-1.20;1.00;;;;;;4997249;28;20438;-62
2020/12/10 06:49:33;;;;;;;48.17;26.95;;;-1.10;1.00;;;;;;4997161;28;20516;-61
2020/12/10 06:52:10;;;;;;;40.67;25.00;;;-1.10;99.90;;;;;;4996067;28;20419;-63
2020/12/10 06:55:04;;;;;;;45.42;26.98;;;-1.10;99.90;;;;;;4993596;28;20783;-62
2020/12/10 06:57:52;;;;;;;41.42;25.80;;;-1.00;99.90;;;;;;4993793;28;20906;-63
2020/12/10 07:00:36;;;;;;;44.00;24.13;;;-1.00;99.90;;;;;;4993129;28;20934;-63
2020/12/10 07:03:17;;;;;;;41.80;25.90;;;-1.10;99.90;;;;;;4995103;28;20963;-63
2020/12/10 07:05:43;;;;;;;42.60;25.50;;;-1.10;99.90;;;;;;5012847;28;20416;-64
2020/12/10 07:08:11;;;;;;;41.53;24.75;;;-1.10;99.90;;;;;;4982557;28;20439;-62
2020/12/10 07:10:43;;;;;;;44.63;25.13;;;-1.10;99.90;;;;;;4974034;28;20835;-63
2020/12/10 07:13:10;;;;;;;41.15;25.60;;;-1.10;99.90;;;;;;4973483;28;20420;-64
2020/12/10 07:15:37;;;;;;;40.75;25.25;;;-1.20;99.90;;;;;;4973667;28;20466;-63
2020/12/10 07:18:04;;;;;;;41.45;25.48;;;-1.20;99.90;;;;;;4973944;28;20415;-62
2020/12/10 07:20:33;;;;;;;45.05;26.80;;;-1.20;99.90;;;;;;4973322;28;20443;-62
2020/12/10 07:22:59;;;;;;;51.90;26.37;;;-1.20;99.90;;;;;;4973675;28;20543;-62
2020/12/10 07:25:26;;;;;;;43.72;24.88;;;-1.10;1.00;;;;;;4973528;28;20416;-62
2020/12/10 07:27:53;;;;;;;50.97;27.33;;;-1.20;99.90;;;;;;4973478;28;20966;-62
2020/12/10 07:30:23;;;;;;;47.70;26.95;;;-1.20;1.00;;;;;;4972929;28;20451;-62
2020/12/10 07:32:52;;;;;;;47.65;25.50;;;-1.20;1.00;;;;;;4973219;28;20932;-63
2020/12/10 07:35:27;;;;;;;48.08;25.77;;;-1.20;1.00;;;;;;4973355;28;20420;-62
2020/12/10 07:37:53;;;;;;;41.92;24.13;;;-1.20;1.00;;;;;;4973241;28;20447;-63
2020/12/10 07:40:20;;;;;;;45.30;24.67;;;-1.10;1.00;;;;;;4986387;28;20472;-62
2020/12/10 07:42:46;;;;;;;44.97;24.77;;;-1.00;1.00;;;;;;4992640;28;20426;-63
2020/12/10 07:45:15;;;;;;;39.38;22.60;;;-1.00;1.00;;;;;;4992414;28;20426;-62
2020/12/10 07:47:41;;;;;;;42.45;23.80;;;-1.00;1.00;;;;;;4992514;28;20513;-61
2020/12/10 07:50:20;;;;;;;42.72;23.23;;;-1.00;1.00;;;;;;4992631;28;20570;-62
2020/12/10 07:52:48;;;;;;;39.28;22.38;;;-0.90;1.00;;;;;;4992345;28;20415;-62
2020/12/10 07:55:17;;;;;;;37.20;22.85;;;-0.90;1.00;;;;;;4992348;28;20833;-66
2020/12/10 07:57:52;;;;;;;38.63;23.13;;;-0.80;1.00;;;;;;4992069;28;20410;-63
2020/12/10 08:00:24;;;;;;;40.28;23.20;;;-0.70;1.00;;;;;;4992397;28;20919;-64
2020/12/10 08:03:03;;;;;;;34.72;21.25;;;-0.70;99.90;;;;;;4991921;28;20410;-64
2020/12/10 08:05:29;;;;;;;39.75;21.50;;;-0.60;99.90;;;;;;4992176;28;20418;-64
2020/12/10 08:07:56;;;;;;;35.88;21.30;;;-0.60;99.90;;;;;;4992208;28;20929;-64
2020/12/10 08:10:24;;;;;;;38.78;22.23;;;-0.50;99.90;;;;;;4991962;28;20962;-63
2020/12/10 08:13:16;;;;;;;33.53;20.40;;;-0.50;99.90;;;;;;4991812;28;20418;-63
2020/12/10 08:15:45;;;;;;;34.67;20.50;;;-0.40;99.90;;;;;;4991906;28;20929;-64
2020/12/10 08:18:13;;;;;;;35.15;21.20;;;-0.50;99.90;;;;;;4992124;28;20415;-65
2020/12/10 08:20:43;;;;;;;31.80;20.67;;;-0.40;99.90;;;;;;4992254;28;20418;-63
2020/12/10 08:23:10;;;;;;;39.25;22.15;;;-0.40;99.90;;;;;;4991547;28;20414;-64
2020/12/10 08:25:36;;;;;;;36.75;21.00;;;-0.50;99.90;;;;;;4991856;28;20879;-64
2020/12/10 08:28:04;;;;;;;38.00;22.45;;;-0.50;99.90;;;;;;4991816;28;20469;-63
2020/12/10 08:30:30;;;;;;;38.58;22.08;;;-0.50;99.90;;;;;;4992273;28;20508;-64
2020/12/10 08:32:59;;;;;;;39.78;21.92;;;-0.60;99.90;;;;;;4992094;28;20414;-63
2020/12/10 08:35:25;;;;;;;35.03;22.02;;;-0.50;99.90;;;;;;4991574;28;20414;-63
2020/12/10 08:37:51;;;;;;;34.40;20.90;;;-0.40;99.90;;;;;;4991435;28;20822;-64
2020/12/10 08:40:24;;;;;;;36.58;21.30;;;-0.50;99.90;;;;;;4991725;28;20415;-63
2020/12/10 08:42:51;;;;;;;37.97;21.60;;;-0.40;99.90;;;;;;4991501;28;20459;-63
2020/12/10 08:45:32;;;;;;;38.65;21.40;;;-0.40;99.90;;;;;;4991562;28;20422;-62
2020/12/10 08:48:01;;;;;;;43.15;23.20;;;-0.40;99.90;;;;;;4988930;28;20513;-63
2020/12/10 08:50:28;;;;;;;38.28;22.05;;;-0.30;99.90;;;;;;4991884;28;20748;-61
2020/12/10 08:53:09;;;;;;;37.33;21.63;;;-0.20;99.90;;;;;;4991258;28;20422;-62
2020/12/10 08:55:41;;;;;;;36.65;20.23;;;-0.10;99.90;;;;;;4991575;28;20427;-62
2020/12/10 08:58:07;;;;;;;36.92;21.45;;;-0.10;99.90;;;;;;4991286;28;20940;-62
2020/12/10 09:00:37;;;;;;;33.90;20.00;;;0.00;99.90;;;;;;4991076;28;20417;-63
2020/12/10 09:03:05;;;;;;;35.70;21.65;;;0.00;99.90;;;;;;4991511;28;20446;-65
2020/12/10 09:05:31;;;;;;;34.57;20.00;;;0.00;99.90;;;;;;4991341;28;20901;-62
2020/12/10 09:07:57;;;;;;;35.40;20.90;;;0.20;99.90;;;;;;4991262;28;20434;-62
2020/12/10 09:10:27;;;;;;;31.73;18.98;;;0.10;99.90;;;;;;4991322;28;20418;-62
2020/12/10 09:12:53;;;;;;;31.48;19.58;;;0.20;99.90;;;;;;4991273;28;20472;-63
2020/12/10 09:15:20;;;;;;;32.08;19.33;;;0.20;99.90;;;;;;4990966;28;20414;-63
2020/12/10 09:17:46;;;;;;;32.65;18.42;;;0.30;99.90;;;;;;4990982;28;20425;-63
2020/12/10 09:20:13;;;;;;;32.28;19.75;;;0.40;99.90;;;;;;4991117;28;20895;-63
2020/12/10 09:22:39;;;;;;;32.50;19.17;;;0.50;99.90;;;;;;4991023;28;20469;-60
2020/12/10 09:25:05;;;;;;;29.17;18.65;;;0.50;99.90;;;;;;4991023;28;20957;-61
2020/12/10 09:27:33;;;;;;;33.35;19.25;;;0.50;99.90;;;;;;4990909;28;20430;-62
2020/12/10 09:29:59;;;;;;;31.55;17.65;;;0.60;99.90;;;;;;4990994;28;20418;-64
2020/12/10 09:32:25;;;;;;;30.85;18.10;;;0.60;99.90;;;;;;4991161;28;20418;-64
2020/12/10 09:34:51;;;;;;;27.87;17.67;;;0.70;99.90;;;;;;4991210;28;20502;-64
2020/12/10 09:37:18;;;;;;;31.70;19.52;;;0.70;99.90;;;;;;4990776;28;20421;-62
2020/12/10 09:39:45;;;;;;;28.63;17.88;;;0.70;99.90;;;;;;4990863;28;20422;-64
2020/12/10 09:42:11;;;;;;;29.15;18.10;;;0.70;99.90;;;;;;4990721;28;20429;-64
2020/12/10 09:44:37;;;;;;;29.52;17.77;;;0.70;99.90;;;;;;4990987;28;20481;-63
2020/12/10 09:47:06;;;;;;;31.63;17.50;;;0.70;99.90;;;;;;4990793;28;20425;-62
2020/12/10 09:49:33;;;;;;;32.13;19.60;;;0.80;99.90;;;;;;4990910;28;20473;-63
2020/12/10 09:52:01;;;;;;;33.33;19.30;;;0.90;99.90;;;;;;4990748;28;20469;-63
2020/12/10 09:54:35;;;;;;;28.38;17.90;;;1.00;99.90;;;;;;4993574;28;20429;-63
2020/12/10 09:57:20;;;;;;;28.52;18.00;;;1.10;99.90;;;;;;4994273;28;20414;-62
2020/12/10 09:59:47;;;;;;;29.88;17.92;;;1.20;30.60;;;;;;4994202;28;21059;-62
2020/12/10 10:02:16;;;;;;;27.70;17.20;;;1.20;19.80;;;;;;4994656;28;20589;-62
2020/12/10 10:04:42;;;;;;;28.38;18.10;;;1.20;21.00;;;;;;4994828;28;20422;-63
2020/12/10 10:07:08;;;;;;;26.15;15.73;;;1.30;21.30;;;;;;4993959;28;20414;-63
2020/12/10 10:09:36;;;;;;;25.00;15.95;;;1.40;16.30;;;;;;4994542;28;20414;-63
2020/12/10 10:12:04;;;;;;;26.30;15.97;;;1.60;1.00;;;;;;5003376;28;20466;-62
2020/12/10 10:14:30;;;;;;;24.13;15.65;;;1.50;1.00;;;;;;5014477;28;20547;-60
2020/12/10 10:16:57;;;;;;;25.20;15.80;;;1.50;1.00;;;;;;5014742;28;20431;-63
2020/12/10 10:19:23;;;;;;;24.42;16.00;;;1.50;1.00;;;;;;5015225;28;20404;-63
2020/12/10 10:21:49;;;;;;;24.25;15.10;;;1.60;1.00;;;;;;5015120;28;20420;-62
2020/12/10 10:24:15;;;;;;;22.65;14.82;;;1.70;1.00;;;;;;5015511;28;20831;-62
2020/12/10 10:26:43;;;;;;;23.02;14.73;;;1.80;1.00;;;;;;5015363;28;20820;-61
2020/12/10 10:29:10;;;;;;;25.30;16.02;;;1.80;1.00;;;;;;5016668;28;20439;-64
2020/12/10 10:31:37;;;;;;;23.60;14.98;;;1.80;1.00;;;;;;5018700;28;20412;-64
2020/12/10 10:34:03;;;;;;;25.05;15.43;;;1.80;1.00;;;;;;5018930;28;20436;-64
2020/12/10 10:36:29;;;;;;;26.08;15.75;;;1.90;1.00;;;;;;5018228;28;20416;-64
2020/12/10 10:38:55;;;;;;;23.25;15.50;;;2.00;1.00;;;;;;5016572;28;20417;-64
2020/12/10 10:41:21;;;;;;;24.27;14.68;;;2.10;1.00;;;;;;5016514;28;20483;-65
2020/12/10 10:43:48;;;;;;;22.70;14.57;;;2.30;1.00;;;;;;5017107;28;20824;-63
2020/12/10 10:46:18;;;;;;;22.92;14.70;;;2.40;1.00;;;;;;5016163;28;20413;-64
2020/12/10 10:48:44;;;;;;;23.08;14.07;;;2.50;1.00;;;;;;5017223;28;20464;-66
2020/12/10 10:51:11;;;;;;;22.13;14.50;;;2.50;1.00;;;;;;5016950;28;20428;-62
2020/12/10 10:53:37;;;;;;;24.20;14.67;;;2.50;1.00;;;;;;5018279;28;20465;-63
2020/12/10 10:56:03;;;;;;;25.92;15.48;;;2.60;1.00;;;;;;5016849;28;20467;-66
2020/12/10 10:58:30;;;;;;;19.70;14.40;;;2.60;1.00;;;;;;5014087;28;20468;-63
2020/12/10 11:00:57;;;;;;;21.90;14.17;;;2.60;1.00;;;;;;5014534;28;20467;-63
2020/12/10 11:03:23;;;;;;;22.58;15.10;;;2.30;1.00;;;;;;5013888;28;20765;-62
2020/12/10 11:05:49;;;;;;;23.25;15.38;;;2.30;1.00;;;;;;5013242;28;20421;-62
2020/12/10 11:08:17;;;;;;;23.27;14.77;;;2.40;1.00;;;;;;5014604;28;20432;-63
2020/12/10 11:10:43;;;;;;;22.48;14.85;;;2.50;1.00;;;;;;5013318;28;20996;-63
2020/12/10 11:13:09;;;;;;;21.90;13.48;;;2.50;1.00;;;;;;5012976;28;20878;-65
2020/12/10 11:15:35;;;;;;;21.55;14.68;;;2.70;1.00;;;;;;5012792;28;20490;-64
2020/12/10 11:18:02;;;;;;;24.60;15.07;;;2.60;1.00;;;;;;5012732;28;20421;-63
2020/12/10 11:20:28;;;;;;;21.08;13.77;;;2.50;1.00;;;;;;5012841;28;20421;-64
2020/12/10 11:22:55;;;;;;;24.05;14.95;;;2.60;1.00;;;;;;5012816;28;20471;-62
2020/12/10 11:25:21;;;;;;;21.42;14.05;;;2.70;1.00;;;;;;5012750;28;20475;-63
2020/12/10 11:27:47;;;;;;;20.23;13.70;;;2.80;1.00;;;;;;5012574;28;20856;-62
2020/12/10 11:30:13;;;;;;;20.27;13.60;;;2.70;1.00;;;;;;5012649;28;20456;-64
2020/12/10 11:32:39;;;;;;;20.55;12.73;;;2.70;1.00;;;;;;5012695;28;20412;-64
2020/12/10 11:35:06;;;;;;;20.47;12.90;;;2.80;1.00;;;;;;5013929;28;20416;-63
2020/12/10 11:37:32;;;;;;;19.92;13.23;;;2.80;1.00;;;;;;5013226;28;20451;-59
2020/12/10 11:39:59;;;;;;;19.55;12.95;;;2.70;1.00;;;;;;5013334;28;20467;-62
2020/12/10 11:42:26;;;;;;;19.03;12.87;;;2.70;1.00;;;;;;5013019;28;20409;-62
2020/12/10 11:44:52;;;;;;;19.23;12.82;;;2.70;1.00;;;;;;5012483;28;20423;-65
2020/12/10 11:47:19;;;;;;;19.83;13.13;;;2.80;1.00;;;;;;5012195;28;20527;-63
2020/12/10 11:49:45;;;;;;;16.95;12.10;;;2.70;1.00;;;;;;5012776;28;20405;-63
2020/12/10 11:52:12;;;;;;;19.15;12.50;;;2.80;1.00;;;;;;5012359;28;20428;-64
2020/12/10 11:54:38;;;;;;;17.38;12.25;;;2.80;1.00;;;;;;5012100;28;20904;-64
2020/12/10 11:57:04;;;;;;;19.70;11.82;;;2.90;99.90;;;;;;5011844;28;20420;-65
2020/12/10 11:59:30;;;;;;;17.70;12.45;;;2.80;1.00;;;;;;5012277;28;20418;-63
2020/12/10 12:01:56;;;;;;;17.83;12.20;;;2.80;99.90;;;;;;5011824;28;20475;-63
2020/12/10 12:04:22;;;;;;;16.30;11.85;;;2.70;1.00;;;;;;5012017;28;20413;-63
2020/12/10 12:06:49;;;;;;;21.05;12.07;;;2.50;1.00;;;;;;5011946;28;20840;-63
2020/12/10 12:09:16;;;;;;;15.00;10.98;;;2.50;1.00;;;;;;5012135;28;20463;-63
2020/12/10 12:11:42;;;;;;;17.83;12.45;;;2.40;1.00;;;;;;5011865;28;20413;-63
2020/12/10 12:14:08;;;;;;;18.40;11.70;;;2.50;1.00;;;;;;5011464;28;20471;-63
2020/12/10 12:16:34;;;;;;;16.30;11.33;;;2.60;1.00;;;;;;5011106;28;20507;-64
2020/12/10 12:19:00;;;;;;;17.08;11.45;;;2.70;99.90;;;;;;5011933;28;20409;-64
2020/12/10 12:21:27;;;;;;;16.35;11.18;;;2.60;99.90;;;;;;5011926;28;20471;-63
2020/12/10 12:23:54;;;;;;;16.27;11.80;;;2.70;99.90;;;;;;5011151;28;20474;-63
2020/12/10 12:26:28;;;;;;;16.17;11.50;;;2.40;99.90;;;;;;5011503;28;20416;-63
2020/12/10 12:28:55;;;;;;;16.67;11.10;;;2.50;1.00;;;;;;5010984;28;20424;-61
2020/12/10 12:31:27;;;;;;;16.93;12.90;;;2.50;1.00;;;;;;5011821;28;20826;-62
2020/12/10 12:33:53;;;;;;;22.48;15.93;;;2.50;1.00;;;;;;5011199;28;20417;-63
2020/12/10 12:36:19;;;;;;;19.65;13.48;;;2.50;1.00;;;;;;5011485;28;20471;-62
2020/12/10 12:38:46;;;;;;;18.95;13.50;;;2.40;1.00;;;;;;5011184;28;20412;-62